Patriot — WDB5255 — position and weather

sailwx.info

Track history (hours):
 
Tides and Currents Weather Stations Pressure Air Temp Water Temp Dewpoint Dewpoint Depression Visibility Wind Speed Wind Dir Waves Ship Positions

Patriot

Owner: Bald Head Island Transportation, Inc, Bald Head Island, NC. More information available from US FCC via Universal Licensing System and Coast Guard Vessel Documentation Center.

Last reported at 2018-Mar-22 15:55 UTC. Time now 2018-Apr-22 16:01 UTC.
Position N 33°53' W 078°00'.
Warning: this ship's position is 31 days out of date.

Type: Passenger vessel. MMSI: 366907630.

Date/timePositionNaut miles runAvg speedWind from/ knotsBaromVisibWave heightAir tempDewpointWater temp
2018-Mar-22 15:55N 33°53' W 078°00'0 0.0
2018-Mar-22 15:30N 33°53' W 078°00'3 6.4
2018-Mar-22 14:59N 33°56' W 077°60'3 6.5
2018-Mar-22 14:29N 33°53' W 078°00'2 3.3
2018-Mar-22 13:43N 33°55' W 078°00'2 9.8
2018-Mar-22 13:28N 33°53' W 078°00'3 6.5
2018-Mar-22 12:58N 33°56' W 077°60'3 6.6
2018-Mar-22 12:28N 33°53' W 078°00'3 6.5
2018-Mar-22 11:58N 33°56' W 077°60'3 6.5
2018-Mar-22 11:27N 33°53' W 078°00'3 6.5
2018-Mar-22 10:57N 33°56' W 077°60'0 0.0
2018-Mar-22 02:49N 33°56' W 077°60'3 9.6
2018-Mar-22 02:29N 33°53' W 078°00'3 6.5
2018-Mar-22 01:59N 33°56' W 077°60'3 6.5
2018-Mar-22 01:28N 33°53' W 078°00'3 6.5
2018-Mar-22 00:58N 33°56' W 077°60'3 6.5
2018-Mar-22 00:28N 33°53' W 078°00'3 6.5
2018-Mar-21 23:58N 33°56' W 077°60'3 6.5
2018-Mar-21 23:27N 33°53' W 078°00'3 6.5
2018-Mar-21 22:57N 33°56' W 077°60'3 6.6
2018-Mar-21 22:27N 33°53' W 078°00'3 6.5
2018-Mar-21 21:57N 33°56' W 077°60'1 0.9
2018-Mar-21 20:46N 33°55' W 078°01'2 7.2
2018-Mar-21 20:26N 33°53' W 078°00'3 6.6
2018-Mar-21 19:56N 33°56' W 077°60'3 6.6
2018-Mar-21 19:26N 33°53' W 078°00'3 7.1
2018-Mar-21 18:58N 33°56' W 077°60'3 6.5
2018-Mar-21 18:27N 33°53' W 078°00'3 6.6
2018-Mar-21 17:57N 33°56' W 077°60'3 5.4
2018-Mar-21 17:21N 33°53' W 078°00'3 9.5
2018-Mar-21 17:00N 33°56' W 077°60'3 6.6
2018-Mar-21 16:30N 33°53' W 078°00'0 0.0
2018-Mar-21 16:00N 33°53' W 078°00'0 0.0
2018-Mar-21 15:29N 33°53' W 078°00'3 6.5
2018-Mar-21 14:59N 33°56' W 077°60'3 6.5
2018-Mar-21 14:29N 33°53' W 078°00'3 6.5
2018-Mar-21 13:59N 33°56' W 077°60'3 6.5
2018-Mar-21 13:29N 33°53' W 078°00'3 6.5
2018-Mar-21 12:58N 33°56' W 077°60'  
Track history (hours):
 
Tides and Currents Weather Stations Pressure Air Temp Water Temp Dewpoint Dewpoint Depression Visibility Wind Speed Wind Dir Waves Ship Positions

Patriot

Owner: Bald Head Island Transportation, Inc, Bald Head Island, NC. More information available from US FCC via Universal Licensing System and Coast Guard Vessel Documentation Center.

Last reported at 2018-Mar-22 15:55 UTC. Time now 2018-Apr-22 16:01 UTC.
Position N 33°53' W 078°00'.
Warning: this ship's position is 31 days out of date.

Type: Passenger vessel. MMSI: 366907630.

Date/timePositionNaut miles runAvg speedWind from/ knotsBaromVisibWave heightAir tempDewpointWater temp
2018-Mar-22 15:55N 33°53' W 078°00'0 0.0
2018-Mar-22 15:30N 33°53' W 078°00'3 6.4
2018-Mar-22 14:59N 33°56' W 077°60'3 6.5
2018-Mar-22 14:29N 33°53' W 078°00'2 3.3
2018-Mar-22 13:43N 33°55' W 078°00'2 9.8
2018-Mar-22 13:28N 33°53' W 078°00'3 6.5
2018-Mar-22 12:58N 33°56' W 077°60'3 6.6
2018-Mar-22 12:28N 33°53' W 078°00'3 6.5
2018-Mar-22 11:58N 33°56' W 077°60'3 6.5
2018-Mar-22 11:27N 33°53' W 078°00'3 6.5
2018-Mar-22 10:57N 33°56' W 077°60'0 0.0
2018-Mar-22 02:49N 33°56' W 077°60'3 9.6
2018-Mar-22 02:29N 33°53' W 078°00'3 6.5
2018-Mar-22 01:59N 33°56' W 077°60'3 6.5
2018-Mar-22 01:28N 33°53' W 078°00'3 6.5
2018-Mar-22 00:58N 33°56' W 077°60'3 6.5
2018-Mar-22 00:28N 33°53' W 078°00'3 6.5
2018-Mar-21 23:58N 33°56' W 077°60'3 6.5
2018-Mar-21 23:27N 33°53' W 078°00'3 6.5
2018-Mar-21 22:57N 33°56' W 077°60'3 6.6
2018-Mar-21 22:27N 33°53' W 078°00'3 6.5
2018-Mar-21 21:57N 33°56' W 077°60'1 0.9
2018-Mar-21 20:46N 33°55' W 078°01'2 7.2
2018-Mar-21 20:26N 33°53' W 078°00'3 6.6
2018-Mar-21 19:56N 33°56' W 077°60'3 6.6
2018-Mar-21 19:26N 33°53' W 078°00'3 7.1
2018-Mar-21 18:58N 33°56' W 077°60'3 6.5
2018-Mar-21 18:27N 33°53' W 078°00'3 6.6
2018-Mar-21 17:57N 33°56' W 077°60'3 5.4
2018-Mar-21 17:21N 33°53' W 078°00'3 9.5
2018-Mar-21 17:00N 33°56' W 077°60'3 6.6
2018-Mar-21 16:30N 33°53' W 078°00'0 0.0
2018-Mar-21 16:00N 33°53' W 078°00'0 0.0
2018-Mar-21 15:29N 33°53' W 078°00'3 6.5
2018-Mar-21 14:59N 33°56' W 077°60'3 6.5
2018-Mar-21 14:29N 33°53' W 078°00'3 6.5
2018-Mar-21 13:59N 33°56' W 077°60'3 6.5
2018-Mar-21 13:29N 33°53' W 078°00'3 6.5
2018-Mar-21 12:58N 33°56' W 077°60'  

Dump ship's entire track history